createdAt,value
2023-04-29T00:01:58.388Z,23.60
2023-04-29T00:04:26.195Z,22.27
2023-04-29T00:06:56.170Z,28.57
2023-04-29T00:09:23.554Z,22.93
2023-04-29T00:11:51.120Z,25.70
2023-04-29T00:14:18.467Z,21.43
2023-04-29T00:16:46.268Z,32.80
2023-04-29T00:19:13.590Z,23.60
2023-04-29T00:21:44.453Z,24.00
2023-04-29T00:24:12.456Z,26.20
2023-04-29T00:26:40.554Z,21.57
2023-04-29T00:29:09.533Z,22.90
2023-04-29T00:31:42.582Z,22.57
2023-04-29T00:34:10.052Z,30.20
2023-04-29T00:36:37.337Z,19.93
2023-04-29T00:39:04.830Z,23.00
2023-04-29T00:41:33.388Z,23.70
2023-04-29T00:44:00.674Z,23.37
2023-04-29T00:46:27.991Z,24.20
2023-04-29T00:48:55.444Z,21.33
2023-04-29T00:51:22.985Z,26.00
2023-04-29T00:53:50.860Z,24.50
2023-04-29T00:56:20.265Z,21.33
2023-04-29T00:58:50.650Z,20.67
2023-04-29T01:01:18.931Z,27.23
2023-04-29T01:03:46.891Z,22.97
2023-04-29T01:06:28.464Z,22.40
2023-04-29T01:09:08.582Z,22.70
2023-04-29T01:11:42.057Z,29.00
2023-04-29T01:14:10.385Z,20.90
2023-04-29T01:16:42.623Z,20.87
2023-04-29T01:19:22.829Z,19.27
2023-04-29T01:21:50.315Z,26.37
2023-04-29T01:24:18.409Z,21.20
2023-04-29T01:26:53.877Z,23.77
2023-04-29T01:29:28.168Z,22.73
2023-04-29T01:32:04.744Z,20.67
2023-04-29T01:34:38.967Z,24.47
2023-04-29T01:37:13.899Z,32.73
2023-04-29T01:39:56.202Z,25.07
2023-04-29T01:42:29.421Z,27.23
2023-04-29T01:44:59.808Z,26.90
2023-04-29T01:47:28.957Z,30.73
2023-04-29T01:49:56.225Z,28.73
2023-04-29T01:52:23.501Z,21.33
2023-04-29T01:54:51.378Z,25.10
2023-04-29T01:57:18.742Z,25.00
2023-04-29T01:59:45.962Z,28.07
2023-04-29T02:02:14.574Z,19.10
2023-04-29T02:04:42.258Z,17.43
2023-04-29T02:07:09.600Z,17.73
2023-04-29T02:09:36.878Z,18.93
2023-04-29T02:12:05.428Z,17.47
2023-04-29T02:14:35.054Z,21.53
2023-04-29T02:17:04.137Z,18.27
2023-04-29T02:19:31.481Z,15.90
2023-04-29T02:21:58.751Z,20.83
2023-04-29T02:24:26.191Z,20.03
2023-04-29T02:26:53.612Z,17.40
2023-04-29T02:29:21.561Z,15.93
2023-04-29T02:31:48.888Z,16.33
2023-04-29T02:34:16.206Z,22.90
2023-04-29T02:36:43.490Z,22.37
2023-04-29T02:39:10.719Z,15.83
2023-04-29T02:41:37.935Z,19.90
2023-04-29T02:44:05.366Z,14.70
2023-04-29T02:46:35.466Z,16.00
2023-04-29T02:49:03.534Z,16.13
2023-04-29T02:51:30.868Z,14.40
2023-04-29T02:53:58.158Z,17.90
2023-04-29T02:56:25.492Z,14.13
2023-04-29T02:58:52.777Z,17.23
2023-04-29T03:01:20.879Z,17.33
2023-04-29T03:03:48.932Z,15.43
2023-04-29T03:06:16.308Z,13.17
2023-04-29T03:08:43.565Z,17.63
2023-04-29T03:11:10.904Z,15.87
2023-04-29T03:13:38.271Z,17.57
2023-04-29T03:16:06.520Z,16.47
2023-04-29T03:18:33.764Z,26.93
2023-04-29T03:21:04.043Z,13.40
2023-04-29T03:23:31.339Z,15.50
2023-04-29T03:25:58.662Z,14.07
2023-04-29T03:28:25.973Z,14.60
2023-04-29T03:30:53.563Z,17.30
2023-04-29T03:33:20.951Z,15.10
2023-04-29T03:35:48.201Z,11.53
2023-04-29T03:38:16.091Z,13.80
2023-04-29T03:40:44.739Z,12.77
2023-04-29T03:43:13.315Z,11.73
2023-04-29T03:45:40.594Z,20.63
2023-04-29T03:48:08.034Z,14.57
2023-04-29T03:50:36.210Z,17.43
2023-04-29T03:53:03.529Z,13.27
2023-04-29T03:55:31.449Z,12.80
2023-04-29T03:57:58.714Z,17.10
2023-04-29T04:00:26.078Z,13.27
2023-04-29T04:02:53.547Z,12.10
2023-04-29T04:05:24.386Z,19.60
2023-04-29T04:07:51.774Z,12.23
2023-04-29T04:10:19.168Z,11.30
2023-04-29T04:12:47.214Z,35.63
2023-04-29T04:15:15.893Z,16.50
2023-04-29T04:17:43.165Z,16.17
2023-04-29T04:20:11.545Z,18.67
2023-04-29T04:22:38.778Z,14.40
2023-04-29T04:25:07.718Z,19.70
2023-04-29T04:27:35.267Z,14.13
2023-04-29T04:30:03.549Z,18.00
2023-04-29T04:32:30.963Z,16.00
2023-04-29T04:34:58.572Z,14.17
2023-04-29T04:37:25.892Z,14.30
2023-04-29T04:39:53.415Z,14.30
2023-04-29T04:42:22.406Z,16.93
2023-04-29T04:44:49.654Z,16.90
2023-04-29T04:47:17.916Z,20.20
2023-04-29T04:49:45.583Z,21.37
2023-04-29T04:52:12.853Z,22.03
2023-04-29T04:54:40.098Z,19.33
2023-04-29T04:57:07.453Z,22.03
2023-04-29T04:59:34.884Z,28.97
2023-04-29T05:02:02.160Z,78.00
2023-04-29T05:04:30.242Z,59.77
2023-04-29T05:06:57.593Z,77.00
2023-04-29T05:09:26.148Z,47.50
2023-04-29T05:11:53.748Z,30.57
2023-04-29T05:14:21.070Z,28.53
2023-04-29T05:16:48.457Z,37.50
2023-04-29T05:19:15.726Z,28.07
2023-04-29T05:21:43.775Z,27.80
2023-04-29T05:24:11.119Z,27.67
2023-04-29T05:26:38.712Z,28.20
2023-04-29T05:29:06.912Z,26.03
2023-04-29T05:31:34.945Z,33.57
2023-04-29T05:34:02.718Z,52.50
2023-04-29T05:36:30.022Z,46.07
2023-04-29T05:38:58.467Z,50.40
2023-04-29T05:41:26.280Z,33.17
2023-04-29T05:43:53.771Z,46.23
2023-04-29T05:46:22.403Z,26.77
2023-04-29T05:48:49.759Z,26.80
2023-04-29T05:51:17.153Z,25.13
2023-04-29T05:53:44.433Z,21.47
2023-04-29T05:56:12.428Z,25.80
2023-04-29T05:58:39.721Z,23.03
2023-04-29T06:01:07.176Z,27.07
2023-04-29T06:03:35.333Z,22.07
2023-04-29T06:06:03.087Z,22.47
2023-04-29T06:08:30.664Z,22.80
2023-04-29T06:10:58.011Z,20.47
2023-04-29T06:13:26.151Z,21.90
2023-04-29T06:15:53.387Z,22.07
2023-04-29T06:18:20.719Z,20.43
2023-04-29T06:20:47.977Z,21.77
2023-04-29T06:23:17.048Z,19.37
2023-04-29T06:25:44.287Z,20.80
2023-04-29T06:28:11.616Z,20.30
2023-04-29T06:30:39.610Z,22.63
2023-04-29T06:33:07.425Z,19.90
2023-04-29T06:35:38.681Z,19.70
2023-04-29T06:38:07.453Z,18.17
2023-04-29T06:40:34.989Z,16.10
2023-04-29T06:43:03.841Z,19.30
2023-04-29T06:45:31.406Z,18.63
2023-04-29T06:48:02.692Z,22.10
2023-04-29T06:50:30.322Z,17.43
2023-04-29T06:52:57.672Z,19.20
2023-04-29T06:55:36.202Z,23.70
2023-04-29T06:58:12.083Z,22.00
2023-04-29T07:00:39.710Z,20.97
2023-04-29T07:03:09.331Z,22.73
2023-04-29T07:05:41.547Z,22.83
2023-04-29T07:08:10.015Z,25.53
2023-04-29T07:10:37.336Z,22.33
2023-04-29T07:13:04.906Z,22.33
2023-04-29T07:15:35.639Z,19.37
2023-04-29T07:18:04.698Z,18.13
2023-04-29T07:20:34.096Z,13.20
2023-04-29T07:23:02.238Z,17.63
2023-04-29T07:25:30.510Z,18.20
2023-04-29T07:27:58.614Z,17.03
2023-04-29T07:30:49.177Z,18.80
2023-04-29T07:33:20.605Z,19.70
2023-04-29T07:35:49.946Z,14.90
2023-04-29T07:38:26.496Z,12.60
2023-04-29T07:41:00.237Z,12.37
2023-04-29T07:43:28.002Z,15.97
2023-04-29T07:46:10.211Z,13.57
2023-04-29T07:48:45.963Z,18.27
2023-04-29T07:51:33.039Z,14.37
2023-04-29T07:54:15.356Z,15.07
2023-04-29T07:57:03.494Z,10.57
2023-04-29T07:59:41.109Z,12.77
2023-04-29T08:05:01.828Z,10.30
2023-04-29T08:07:32.469Z,12.33
2023-04-29T08:10:04.579Z,11.17
2023-04-29T08:12:37.614Z,11.10
2023-04-29T08:15:09.922Z,11.93
2023-04-29T08:17:40.997Z,12.37
2023-04-29T08:20:11.562Z,10.93
2023-04-29T08:22:44.082Z,12.37
2023-04-29T08:25:11.972Z,13.30
2023-04-29T08:30:30.346Z,10.80
2023-04-29T08:33:01.575Z,13.57
2023-04-29T08:35:29.137Z,11.87
2023-04-29T08:38:13.058Z,10.53
2023-04-29T08:41:14.864Z,10.07
2023-04-29T08:43:42.371Z,9.90
2023-04-29T08:46:10.842Z,10.27
2023-04-29T08:48:45.169Z,9.53
2023-04-29T08:51:16.800Z,13.77
2023-04-29T08:53:52.911Z,11.23
2023-04-29T08:56:34.778Z,13.63
2023-04-29T09:00:04.834Z,14.07
2023-04-29T09:03:06.870Z,10.53
2023-04-29T09:05:37.098Z,10.20
2023-04-29T09:08:12.022Z,11.33
2023-04-29T09:10:44.837Z,14.37
2023-04-29T09:13:35.710Z,10.73
2023-04-29T09:19:52.696Z,11.87
2023-04-29T09:22:26.326Z,12.13
2023-04-29T09:25:29.635Z,10.10
2023-04-29T09:27:58.274Z,11.10
2023-04-29T09:30:26.095Z,12.17
2023-04-29T09:33:07.796Z,13.97
2023-04-29T09:35:36.053Z,13.70
2023-04-29T09:38:11.679Z,15.23
2023-04-29T09:40:58.380Z,15.60
2023-04-29T09:43:30.244Z,17.73
2023-04-29T09:45:57.972Z,18.37
2023-04-29T09:48:33.630Z,20.00
2023-04-29T09:51:02.896Z,13.77
2023-04-29T09:53:38.782Z,16.20
2023-04-29T09:56:06.820Z,15.10
2023-04-29T09:58:40.462Z,23.90
2023-04-29T10:01:08.588Z,20.17
2023-04-29T10:03:38.159Z,18.00
2023-04-29T10:06:07.154Z,19.27
2023-04-29T10:08:37.513Z,16.03
2023-04-29T10:11:07.486Z,18.67
2023-04-29T10:13:44.410Z,15.53
2023-04-29T10:16:36.863Z,15.83
2023-04-29T10:19:13.831Z,18.50
2023-04-29T10:22:01.444Z,16.30
2023-04-29T10:24:36.850Z,13.43
2023-04-29T10:27:56.558Z,16.10
2023-04-29T10:34:16.782Z,18.60
2023-04-29T10:37:05.647Z,17.03
2023-04-29T10:43:12.154Z,16.67
2023-04-29T10:46:06.178Z,22.13
2023-04-29T10:49:25.477Z,17.10
2023-04-29T10:52:27.817Z,17.00
2023-04-29T10:55:12.308Z,10.43
2023-04-29T10:57:51.419Z,9.97
2023-04-29T11:00:53.857Z,17.27
2023-04-29T11:04:08.714Z,10.27
2023-04-29T11:06:55.176Z,13.07
2023-04-29T11:15:40.407Z,10.60
2023-04-29T11:18:50.772Z,8.53
2023-04-29T11:22:14.132Z,7.87
2023-04-29T11:28:29.922Z,9.63
2023-04-29T11:31:14.537Z,8.10
2023-04-29T11:34:01.603Z,10.63
2023-04-29T11:40:12.638Z,6.97
2023-04-29T11:43:19.682Z,7.17
2023-04-29T11:46:32.125Z,6.20
2023-04-29T11:49:20.389Z,8.70
2023-04-29T11:52:03.053Z,7.73
2023-04-29T11:55:30.323Z,13.27
2023-04-29T11:58:31.413Z,10.80
2023-04-29T12:01:13.559Z,8.70
2023-04-29T12:11:11.755Z,10.70
2023-04-29T12:13:40.570Z,7.53
2023-04-29T12:16:08.622Z,6.27
2023-04-29T12:18:36.306Z,11.00
2023-04-29T12:21:03.828Z,7.87
2023-04-29T12:23:31.232Z,13.60
2023-04-29T12:26:00.329Z,10.60
2023-04-29T12:28:28.219Z,11.47
2023-04-29T12:30:58.273Z,11.20
2023-04-29T12:33:27.093Z,17.53
2023-04-29T12:35:56.889Z,9.77
2023-04-29T12:38:26.895Z,11.40
2023-04-29T12:40:54.728Z,9.30
2023-04-29T12:43:27.432Z,13.53
2023-04-29T12:46:00.855Z,14.70
2023-04-29T12:48:33.187Z,13.77
2023-04-29T12:51:01.921Z,14.67
2023-04-29T12:53:30.735Z,9.30
2023-04-29T12:55:58.768Z,16.50
2023-04-29T12:58:29.483Z,10.40
2023-04-29T13:00:57.986Z,20.77
2023-04-29T13:03:25.854Z,21.27
2023-04-29T13:05:54.058Z,21.80
2023-04-29T13:08:22.228Z,32.67
2023-04-29T13:10:49.498Z,28.17
2023-04-29T13:13:16.778Z,18.87
2023-04-29T13:15:44.175Z,21.87
2023-04-29T13:18:12.119Z,23.17
2023-04-29T13:20:42.043Z,24.33
2023-04-29T13:23:09.984Z,23.90
2023-04-29T13:25:37.301Z,21.23
2023-04-29T13:28:05.002Z,23.53
2023-04-29T13:30:32.586Z,25.10
2023-04-29T13:33:09.328Z,24.33
2023-04-29T13:35:40.793Z,19.20
2023-04-29T13:38:08.297Z,22.43
2023-04-29T13:40:39.384Z,24.40
2023-04-29T13:43:15.459Z,28.30
2023-04-29T13:45:48.165Z,28.87
2023-04-29T14:01:17.047Z,30.00
2023-04-29T14:03:36.041Z,20.87
2023-04-29T14:06:05.671Z,29.10
2023-04-29T14:08:32.935Z,23.67
2023-04-29T14:11:00.562Z,27.83
2023-04-29T14:13:28.631Z,30.80
2023-04-29T14:15:56.332Z,29.40
2023-04-29T14:18:23.589Z,31.50
2023-04-29T14:20:50.985Z,31.10
2023-04-29T14:23:19.003Z,40.77
2023-04-29T14:25:46.786Z,27.60
2023-04-29T14:28:14.099Z,29.17
2023-04-29T14:30:43.935Z,30.03
2023-04-29T14:33:12.796Z,26.63
2023-04-29T14:35:40.434Z,25.10
2023-04-29T14:38:07.981Z,24.40
2023-04-29T14:40:37.389Z,32.80
2023-04-29T14:43:04.730Z,20.43
2023-04-29T14:45:32.071Z,21.17
2023-04-29T14:47:59.590Z,28.47
2023-04-29T14:50:28.626Z,26.10
2023-04-29T14:52:57.159Z,24.50
2023-04-29T14:55:24.396Z,25.37
2023-04-29T14:57:52.736Z,25.47
2023-04-29T15:00:20.694Z,20.50
2023-04-29T15:02:49.962Z,25.93
2023-04-29T15:05:18.167Z,23.93
2023-04-29T15:07:45.812Z,27.43
2023-04-29T15:10:13.193Z,28.97
2023-04-29T15:12:40.768Z,31.63
2023-04-29T15:15:10.323Z,25.10
2023-04-29T15:17:37.698Z,24.50
2023-04-29T15:20:06.782Z,27.53
2023-04-29T15:22:34.162Z,36.73
2023-04-29T15:25:01.485Z,29.50
2023-04-29T15:27:28.816Z,29.80
2023-04-29T15:29:57.010Z,25.43
2023-04-29T15:32:30.616Z,23.37
2023-04-29T15:34:58.567Z,30.30
2023-04-29T15:37:27.002Z,27.17
2023-04-29T15:39:54.687Z,25.80
2023-04-29T15:42:22.234Z,26.57
2023-04-29T15:44:49.576Z,22.57
2023-04-29T15:47:16.995Z,25.30
2023-04-29T15:49:45.056Z,20.70
2023-04-29T15:52:12.360Z,26.17
2023-04-29T15:54:40.467Z,26.13
2023-04-29T15:57:07.760Z,23.17
2023-04-29T15:59:35.111Z,25.40
2023-04-29T16:02:03.030Z,27.00
2023-04-29T16:04:30.709Z,31.57
2023-04-29T16:06:58.742Z,28.97
2023-04-29T16:09:26.020Z,24.67
2023-04-29T16:11:53.267Z,24.27
2023-04-29T16:14:20.495Z,32.50
2023-04-29T16:16:47.883Z,26.33
2023-04-29T16:19:15.116Z,21.70
2023-04-29T16:21:44.909Z,27.70
2023-04-29T16:24:13.137Z,27.10
2023-04-29T16:26:40.774Z,22.07
2023-04-29T16:29:08.856Z,22.80
2023-04-29T16:31:36.229Z,22.37
2023-04-29T16:34:03.513Z,22.57
2023-04-29T16:36:31.603Z,23.17
2023-04-29T16:39:04.902Z,24.43
2023-04-29T16:41:33.099Z,22.97
2023-04-29T16:44:00.434Z,22.07
2023-04-29T16:46:27.753Z,23.87
2023-04-29T16:48:56.166Z,29.67
2023-04-29T16:51:24.945Z,23.53
2023-04-29T16:53:52.458Z,23.30
2023-04-29T16:56:20.836Z,20.90
2023-04-29T16:58:48.971Z,26.33
2023-04-29T17:01:18.747Z,21.97
2023-04-29T17:03:46.899Z,20.90
2023-04-29T17:06:14.628Z,24.97
2023-04-29T17:08:42.336Z,27.00
2023-04-29T17:11:09.737Z,21.07
2023-04-29T17:13:37.023Z,21.33
2023-04-29T17:16:06.287Z,23.23
2023-04-29T17:18:33.597Z,18.63
2023-04-29T17:21:02.072Z,22.20
2023-04-29T17:23:29.895Z,20.07
2023-04-29T17:25:57.234Z,21.13
2023-04-29T17:28:24.525Z,21.47
2023-04-29T17:30:54.942Z,23.07
2023-04-29T17:33:31.601Z,22.00
2023-04-29T17:36:00.551Z,47.03
2023-04-29T17:38:28.687Z,43.50
2023-04-29T17:40:56.043Z,27.90
2023-04-29T17:43:23.375Z,26.90
2023-04-29T17:45:50.679Z,22.10
2023-04-29T17:48:19.703Z,24.50
2023-04-29T17:50:47.765Z,19.67
2023-04-29T17:53:15.135Z,18.40
2023-04-29T17:55:44.119Z,18.27
2023-04-29T17:58:11.439Z,19.57
2023-04-29T18:00:40.975Z,26.60
2023-04-29T18:03:08.474Z,33.03
2023-04-29T18:05:35.939Z,36.07
2023-04-29T18:08:04.262Z,33.17
2023-04-29T18:10:31.587Z,25.63
2023-04-29T18:12:59.040Z,22.37
2023-04-29T18:15:26.402Z,21.90
2023-04-29T18:17:53.880Z,28.13
2023-04-29T18:20:21.804Z,29.73
2023-04-29T18:22:49.745Z,20.17
2023-04-29T18:25:17.822Z,26.10
2023-04-29T18:27:45.079Z,20.47
2023-04-29T18:30:14.109Z,20.40
2023-04-29T18:32:41.715Z,20.50
2023-04-29T18:35:09.530Z,19.50
2023-04-29T18:37:36.871Z,21.43
2023-04-29T18:40:05.391Z,22.00
2023-04-29T18:42:33.377Z,25.67
2023-04-29T18:45:00.666Z,24.80
2023-04-29T18:47:28.024Z,25.23
2023-04-29T18:49:55.498Z,26.13
2023-04-29T18:52:23.098Z,26.90
2023-04-29T18:54:50.430Z,29.97
2023-04-29T18:57:17.788Z,29.77
2023-04-29T18:59:46.375Z,28.07
2023-04-29T19:02:14.265Z,29.70
2023-04-29T19:04:41.699Z,30.90
2023-04-29T19:07:09.088Z,38.33
2023-04-29T19:09:36.482Z,27.20
2023-04-29T19:12:05.141Z,24.67
2023-04-29T19:14:33.328Z,33.23
2023-04-29T19:17:01.339Z,22.80
2023-04-29T19:19:29.493Z,19.80
2023-04-29T19:21:57.077Z,28.00
2023-04-29T19:24:24.601Z,24.13
2023-04-29T19:26:52.002Z,21.73
2023-04-29T19:29:19.483Z,22.33
2023-04-29T19:31:46.902Z,41.43
2023-04-29T19:34:15.514Z,29.30
2023-04-29T19:36:42.780Z,37.90
2023-04-29T19:39:11.027Z,21.17
2023-04-29T19:41:38.564Z,21.40
2023-04-29T19:44:06.212Z,28.87
2023-04-29T19:46:33.852Z,22.57
2023-04-29T19:49:01.587Z,21.00
2023-04-29T19:51:30.381Z,28.57
2023-04-29T19:54:00.785Z,24.07
2023-04-29T19:56:28.144Z,23.93
2023-04-29T19:58:56.208Z,29.83
2023-04-29T20:01:23.614Z,19.33
2023-04-29T20:03:50.959Z,24.20
2023-04-29T20:06:19.099Z,28.20
2023-04-29T20:08:47.320Z,29.77
2023-04-29T20:11:14.906Z,23.03
2023-04-29T20:13:42.220Z,29.07
2023-04-29T20:16:10.431Z,24.30
2023-04-29T20:18:40.032Z,32.57
2023-04-29T20:21:07.548Z,27.03
2023-04-29T20:23:34.900Z,34.77
2023-04-29T20:26:03.551Z,34.87
2023-04-29T20:28:30.871Z,25.70
2023-04-29T20:30:58.231Z,23.97
2023-04-29T20:33:25.574Z,27.53
2023-04-29T20:35:53.595Z,24.60
2023-04-29T20:38:21.925Z,23.20
2023-04-29T20:40:53.254Z,23.70
2023-04-29T20:43:21.340Z,27.27
2023-04-29T20:45:49.603Z,30.80
2023-04-29T20:48:17.021Z,23.83
2023-04-29T20:50:44.389Z,24.23
2023-04-29T20:53:11.804Z,27.80
2023-04-29T20:55:39.181Z,27.73
2023-04-29T20:58:06.544Z,29.07
2023-04-29T21:00:34.699Z,28.43
2023-04-29T21:03:02.167Z,25.50
2023-04-29T21:05:29.648Z,34.20
2023-04-29T21:07:57.997Z,30.33
2023-04-29T21:10:25.259Z,24.00
2023-04-29T21:12:52.606Z,29.13
2023-04-29T21:15:20.078Z,32.07
2023-04-29T21:17:48.248Z,26.40
2023-04-29T21:20:16.434Z,28.13
2023-04-29T21:22:44.384Z,24.37
2023-04-29T21:25:11.667Z,25.70
2023-04-29T21:27:38.992Z,21.90
2023-04-29T21:30:07.394Z,24.97
2023-04-29T21:32:35.365Z,23.30
2023-04-29T21:35:03.695Z,23.80
2023-04-29T21:37:31.134Z,28.10
2023-04-29T21:39:59.566Z,27.40
2023-04-29T21:42:27.457Z,24.03
2023-04-29T21:44:57.037Z,23.30
2023-04-29T21:47:24.515Z,23.57
2023-04-29T21:49:52.843Z,23.93
2023-04-29T21:52:21.332Z,26.67
2023-04-29T21:54:48.551Z,26.97
2023-04-29T21:57:15.868Z,25.50
2023-04-29T21:59:43.188Z,29.43
2023-04-29T22:02:21.114Z,31.50
2023-04-29T22:04:49.884Z,26.57
2023-04-29T22:07:17.559Z,23.00
2023-04-29T22:09:48.917Z,19.63
2023-04-29T22:12:17.188Z,26.27
2023-04-29T22:14:44.518Z,26.60
2023-04-29T22:17:11.973Z,22.77
2023-04-29T22:19:39.749Z,23.40
2023-04-29T22:22:07.131Z,22.37
2023-04-29T22:24:34.463Z,31.80
2023-04-29T22:27:02.852Z,24.40
2023-04-29T22:29:30.152Z,21.43
2023-04-29T22:31:57.481Z,24.30
2023-04-29T22:34:24.847Z,22.47
2023-04-29T22:36:52.095Z,36.17
2023-04-29T22:39:19.390Z,24.00
2023-04-29T22:41:46.657Z,21.13
2023-04-29T22:44:15.286Z,29.40
2023-04-29T22:46:42.557Z,25.47
2023-04-29T22:49:09.951Z,26.30
2023-04-29T22:51:37.203Z,29.10
2023-04-29T22:54:04.600Z,24.57
2023-04-29T22:56:31.928Z,25.73
2023-04-29T22:58:59.275Z,26.50
2023-04-29T23:01:27.415Z,25.40
2023-04-29T23:03:55.585Z,22.07
2023-04-29T23:06:23.234Z,27.40
2023-04-29T23:08:50.635Z,23.77
2023-04-29T23:11:17.966Z,26.10
2023-04-29T23:13:45.236Z,26.57
2023-04-29T23:16:12.622Z,25.93
2023-04-29T23:18:40.686Z,21.80
2023-04-29T23:21:07.963Z,23.80
2023-04-29T23:23:35.264Z,25.17
2023-04-29T23:26:02.593Z,28.73
2023-04-29T23:28:29.911Z,22.80
2023-04-29T23:30:57.261Z,33.60
2023-04-29T23:33:24.575Z,26.70
2023-04-29T23:35:53.202Z,27.70
2023-04-29T23:38:20.708Z,23.07
2023-04-29T23:40:48.038Z,23.90
2023-04-29T23:43:15.329Z,23.53
2023-04-29T23:45:44.910Z,18.53
2023-04-29T23:48:12.352Z,22.60
2023-04-29T23:50:39.616Z,25.63
2023-04-29T23:53:07.847Z,23.60
2023-04-29T23:55:35.126Z,20.13
2023-04-29T23:58:02.517Z,15.70
